Time;durP1;ratioP1;P1;durP2;ratioP2;P2;SDS_P1;SDS_P2;PMS_P1;PMS_P2;Temp;Humidity;BMP_temperature;BMP_pressure;BME280_temperature;BME280_humidity;BME280_pressure;Samples;Min_cycle;Max_cycle;Signal;HPM_P1;HPM_P2
2022/12/26 00:01:28;;;;;;;;;;;7.10;99.90;;;;;;4862636;29;20069;-76
2022/12/26 00:03:54;;;;;;;;;;;7.10;99.90;;;;;;4891415;29;19927;-76
2022/12/26 00:06:21;;;;;;;;;;;7.10;99.90;;;;;;4890321;29;19942;-76
2022/12/26 00:08:47;;;;;;;;;;;7.10;99.90;;;;;;4873999;29;20386;-76
2022/12/26 00:11:13;;;;;;;;;;;7.10;99.90;;;;;;4870473;29;20026;-76
2022/12/26 00:13:39;;;;;;;;;;;7.10;99.90;;;;;;4891743;29;20002;-75
2022/12/26 00:16:08;;;;;;;;;;;7.10;99.90;;;;;;4889713;29;19973;-75
2022/12/26 00:18:34;;;;;;;;;;;7.10;99.90;;;;;;4891470;29;20362;-76
2022/12/26 00:20:59;;;;;;;;;;;7.10;99.90;;;;;;4861488;29;19928;-75
2022/12/26 00:23:25;;;;;;;;;;;7.20;99.90;;;;;;4891250;29;19934;-75
2022/12/26 00:25:51;;;;;;;;;;;7.20;99.90;;;;;;4871119;29;20412;-75
2022/12/26 00:28:16;;;;;;;;;;;7.20;99.90;;;;;;4860664;29;20132;-75
2022/12/26 00:30:42;;;;;;;;;;;7.20;99.90;;;;;;4889309;29;20459;-75
2022/12/26 00:33:07;;;;;;;;;;;7.20;99.90;;;;;;4860672;29;19924;-75
2022/12/26 00:35:33;;;;;;;;;;;7.20;99.90;;;;;;4859485;29;19991;-75
2022/12/26 00:37:59;;;;;;;;;;;7.20;99.90;;;;;;4875953;29;20384;-75
2022/12/26 00:40:24;;;;;;;;;;;7.20;99.90;;;;;;4858212;29;19987;-75
2022/12/26 00:42:50;;;;;;;;;;;7.20;99.90;;;;;;4859455;29;19994;-75
2022/12/26 00:45:15;;;;;;;;;;;7.20;99.90;;;;;;4872213;29;20342;-75
2022/12/26 00:47:41;;;;;;;;;;;7.30;99.90;;;;;;4887808;29;19927;-76
2022/12/26 00:50:07;;;;;;;;;;;7.30;99.90;;;;;;4875575;29;20444;-75
2022/12/26 00:52:32;;;;;;;;;;;7.30;99.90;;;;;;4870290;29;19930;-76
2022/12/26 00:54:58;;;;;;;;;;;7.30;99.90;;;;;;4876539;29;19923;-75
2022/12/26 00:57:24;;;;;;;;;;;7.30;99.90;;;;;;4869676;29;19990;-76
2022/12/26 00:59:49;;;;;;;;;;;7.30;99.90;;;;;;4891424;29;20027;-76
2022/12/26 01:04:59;;;;;;;;;;;7.40;99.90;;;;;;4893247;29;20004;-75
2022/12/26 01:07:25;;;;;;;;;;;7.40;99.90;;;;;;4874293;29;20447;-75
2022/12/26 01:09:50;;;;;;;;;;;7.40;99.90;;;;;;4887054;29;19923;-75
2022/12/26 01:12:16;;;;;;;;;;;7.40;99.90;;;;;;4890648;29;20269;-75
2022/12/26 01:14:42;;;;;;;;;;;7.40;99.90;;;;;;4890352;29;20042;-75
2022/12/26 01:17:07;;;;;;;;;;;7.40;99.90;;;;;;4868768;29;19939;-75
2022/12/26 01:19:33;;;;;;;;;;;7.40;99.90;;;;;;4870351;29;20149;-75
2022/12/26 01:21:59;;;;;;;;;;;7.50;99.90;;;;;;4889249;29;20307;-75
2022/12/26 01:24:25;;;;;;;;;;;7.50;99.90;;;;;;4875374;29;20031;-75
2022/12/26 01:26:50;;;;;;;;;;;7.50;99.90;;;;;;4870815;29;19928;-75
2022/12/26 01:29:16;;;;;;;;;;;7.50;99.90;;;;;;4888033;29;20236;-75
2022/12/26 01:31:41;;;;;;;;;;;7.60;99.90;;;;;;4890566;29;19934;-75
2022/12/26 01:34:07;;;;;;;;;;;7.60;99.90;;;;;;4872377;29;19931;-75
2022/12/26 01:36:33;;;;;;;;;;;7.60;99.90;;;;;;4857867;29;19960;-75
2022/12/26 01:38:58;;;;;;;;;;;7.60;99.90;;;;;;4858711;29;19952;-74
2022/12/26 01:41:24;;;;;;;;;;;7.60;99.90;;;;;;4876755;29;19928;-74
2022/12/26 01:44:06;;;;;;;;;;;7.60;99.90;;;;;;4863151;29;20011;-75
2022/12/26 01:46:39;;;;;;;;;;;7.60;99.90;;;;;;4892045;29;19923;-75
2022/12/26 01:49:34;;;;;;;;;;;7.60;99.90;;;;;;4894105;29;19938;-75
2022/12/26 01:52:03;;;;;;;;;;;7.70;99.90;;;;;;4877615;29;19924;-75
2022/12/26 01:54:32;;;;;;;;;;;7.70;99.90;;;;;;4875102;29;19927;-75
2022/12/26 01:56:59;;;;;;;;;;;7.80;99.90;;;;;;4872906;29;19939;-75
2022/12/26 01:59:27;;;;;;;;;;;7.80;99.90;;;;;;4871166;29;19923;-75
2022/12/26 02:01:53;;;;;;;;;;;7.80;99.90;;;;;;4893519;29;19927;-75
2022/12/26 02:07:05;;;;;;;;;;;7.70;99.90;;;;;;4889661;29;19927;-75
2022/12/26 02:09:31;;;;;;;;;;;7.70;99.90;;;;;;4891074;29;20010;-75
2022/12/26 02:12:03;;;;;;;;;;;7.70;99.90;;;;;;4887747;29;19927;-75
2022/12/26 02:14:29;;;;;;;;;;;7.70;99.90;;;;;;4892588;29;19928;-75
2022/12/26 02:16:55;;;;;;;;;;;7.60;99.90;;;;;;4901072;29;20003;-75
2022/12/26 02:19:48;;;;;;;;;;;7.60;99.90;;;;;;4878046;29;20351;-75
2022/12/26 02:22:23;;;;;;;;;;;7.60;99.90;;;;;;4871651;29;20448;-75
2022/12/26 02:24:48;;;;;;;;;;;7.50;99.90;;;;;;4890538;29;20300;-75
2022/12/26 02:27:20;;;;;;;;;;;7.50;99.90;;;;;;4890549;29;19923;-75
2022/12/26 02:30:00;;;;;;;;;;;7.40;99.90;;;;;;4894065;29;19975;-75
2022/12/26 02:32:41;;;;;;;;;;;7.40;99.90;;;;;;4892102;29;19938;-75
2022/12/26 02:35:13;;;;;;;;;;;7.40;99.90;;;;;;4884834;29;19923;-75
2022/12/26 02:37:45;;;;;;;;;;;7.40;99.90;;;;;;4893953;29;19923;-75
2022/12/26 02:40:26;;;;;;;;;;;7.40;99.90;;;;;;4878153;29;19923;-75
2022/12/26 02:43:15;;;;;;;;;;;7.40;99.90;;;;;;4877587;29;20396;-75
2022/12/26 02:48:41;;;;;;;;;;;7.30;99.90;;;;;;4891603;29;19927;-75
2022/12/26 03:14:12;;;;;;;;;;;7.20;99.90;;;;;;4874304;29;19966;-75
2022/12/26 03:19:24;;;;;;;;;;;7.10;99.90;;;;;;4878963;29;19939;-75
2022/12/26 03:21:50;;;;;;;;;;;7.10;99.90;;;;;;4858205;29;20014;-75
2022/12/26 03:24:16;;;;;;;;;;;7.10;99.90;;;;;;4847623;29;19927;-76
2022/12/26 03:26:47;;;;;;;;;;;7.10;99.90;;;;;;4862850;29;20022;-76
2022/12/26 03:32:00;;;;;;;;;;;7.10;99.90;;;;;;4877440;29;20316;-76
2022/12/26 03:34:27;;;;;;;;;;;7.10;99.90;;;;;;4861330;29;19923;-76
2022/12/26 03:36:58;;;;;;;;;;;7.10;99.90;;;;;;4860195;29;19923;-76
2022/12/26 04:19:22;;;;;;;;;;;7.10;99.90;;;;;;4872292;29;19924;-76
2022/12/26 04:46:31;;;;;;;;;;;7.30;99.90;;;;;;4892297;29;20382;-76
2022/12/26 04:51:43;;;;;;;;;;;7.20;99.90;;;;;;4889542;29;19927;-76
2022/12/26 04:54:08;;;;;;;;;;;7.20;99.90;;;;;;4890477;29;19927;-75
2022/12/26 04:56:34;;;;;;;;;;;7.20;99.90;;;;;;4874555;29;20364;-75
2022/12/26 04:59:00;;;;;;;;;;;7.10;99.90;;;;;;4889010;29;20380;-75
2022/12/26 05:09:43;;;;;;;;;;;7.00;99.90;;;;;;4885391;29;19959;-75
2022/12/26 05:12:09;;;;;;;;;;;7.00;99.90;;;;;;4868153;29;20061;-75
2022/12/26 05:14:35;;;;;;;;;;;7.00;99.90;;;;;;4874901;29;19932;-76
2022/12/26 05:30:45;;;;;;;;;;;7.10;99.90;;;;;;4890553;29;20274;-75
2022/12/26 05:35:56;;;;;;;;;;;7.20;99.90;;;;;;4879110;29;19959;-76
2022/12/26 05:38:22;;;;;;;;;;;7.20;99.90;;;;;;4879059;29;20388;-76
2022/12/26 05:40:47;;;;;;;;;;;7.30;99.90;;;;;;4881721;29;19974;-76
2022/12/26 05:43:13;;;;;;;;;;;7.30;99.90;;;;;;4856222;29;19928;-75
2022/12/26 05:45:38;;;;;;;;;;;7.30;99.90;;;;;;4874308;29;19928;-76
2022/12/26 05:48:04;;;;;;;;;;;7.40;99.90;;;;;;4891310;29;19975;-76
2022/12/26 05:50:30;;;;;;;;;;;7.40;99.90;;;;;;4890869;29;20396;-76
2022/12/26 05:52:56;;;;;;;;;;;7.40;99.90;;;;;;4891944;29;20114;-75
2022/12/26 05:55:23;;;;;;;;;;;7.50;99.90;;;;;;4860643;29;20354;-76
2022/12/26 05:57:49;;;;;;;;;;;7.50;99.90;;;;;;4873282;29;20250;-75
2022/12/26 06:00:15;;;;;;;;;;;7.50;99.90;;;;;;4874699;29;20019;-75
2022/12/26 06:02:40;;;;;;;;;;;7.50;99.90;;;;;;4875887;29;20418;-75
2022/12/26 06:05:06;;;;;;;;;;;7.40;99.90;;;;;;4889854;29;19923;-75
2022/12/26 06:07:32;;;;;;;;;;;7.40;99.90;;;;;;4880623;29;19971;-75
2022/12/26 06:09:57;;;;;;;;;;;7.40;99.90;;;;;;4871953;29;19927;-75
2022/12/26 06:12:23;;;;;;;;;;;7.40;99.90;;;;;;4888847;29;20341;-75
2022/12/26 06:14:52;;;;;;;;;;;7.30;99.90;;;;;;4891180;29;20356;-75
2022/12/26 06:17:17;;;;;;;;;;;7.30;99.90;;;;;;4867711;29;20360;-75
2022/12/26 06:19:43;;;;;;;;;;;7.30;99.90;;;;;;4874377;29;20028;-75
2022/12/26 06:22:09;;;;;;;;;;;7.20;99.90;;;;;;4875351;29;20098;-75
2022/12/26 06:24:35;;;;;;;;;;;7.10;99.90;;;;;;4874831;29;19970;-75
2022/12/26 06:27:01;;;;;;;;;;;7.10;99.90;;;;;;4891028;29;20395;-76
2022/12/26 06:29:26;;;;;;;;;;;7.10;99.90;;;;;;4877689;29;19923;-75
2022/12/26 06:31:52;;;;;;;;;;;7.00;99.90;;;;;;4862456;29;20471;-75
2022/12/26 06:34:18;;;;;;;;;;;6.90;99.90;;;;;;4891594;29;19927;-75
2022/12/26 06:36:43;;;;;;;;;;;6.90;99.90;;;;;;4892415;29;19930;-75
2022/12/26 06:39:09;;;;;;;;;;;6.80;99.90;;;;;;4861008;29;19928;-75
2022/12/26 06:41:34;;;;;;;;;;;6.60;99.90;;;;;;4894897;29;19938;-75
2022/12/26 06:44:00;;;;;;;;;;;6.60;99.90;;;;;;4871428;29;19930;-75
2022/12/26 06:46:26;;;;;;;;;;;6.70;99.90;;;;;;4860578;29;19924;-75
2022/12/26 06:48:51;;;;;;;;;;;6.60;99.90;;;;;;4877074;29;20573;-75
2022/12/26 06:51:18;;;;;;;;;;;6.60;99.90;;;;;;4877012;29;19990;-75
2022/12/26 06:53:44;;;;;;;;;;;6.60;99.90;;;;;;4862560;29;20014;-75
2022/12/26 06:56:20;;;;;;;;;;;6.50;99.90;;;;;;4862143;29;20336;-75
2022/12/26 06:58:46;;;;;;;;;;;6.50;99.90;;;;;;4861980;29;19928;-75
2022/12/26 07:01:14;;;;;;;;;;;6.50;99.90;;;;;;4859285;29;20417;-75
2022/12/26 07:03:40;;;;;;;;;;;6.50;99.90;;;;;;4863629;29;20084;-75
2022/12/26 07:06:09;;;;;;;;;;;6.50;99.90;;;;;;4847680;29;19967;-75
2022/12/26 07:08:34;;;;;;;;;;;6.50;99.90;;;;;;4878889;29;20388;-75
2022/12/26 07:11:00;;;;;;;;;;;6.50;99.90;;;;;;4864539;29;19971;-75
2022/12/26 07:13:25;;;;;;;;;;;6.40;99.90;;;;;;4861970;29;19979;-75
2022/12/26 07:15:51;;;;;;;;;;;6.40;99.90;;;;;;4862026;29;20376;-75
2022/12/26 07:18:17;;;;;;;;;;;6.40;99.90;;;;;;4867989;29;19970;-75
2022/12/26 07:20:43;;;;;;;;;;;6.40;99.90;;;;;;4861929;29;20347;-76
2022/12/26 07:23:08;;;;;;;;;;;6.40;99.90;;;;;;4877217;29;19931;-75
2022/12/26 07:25:35;;;;;;;;;;;6.40;99.90;;;;;;4862221;29;20287;-75
2022/12/26 07:28:01;;;;;;;;;;;6.40;99.90;;;;;;4889593;29;19930;-75
2022/12/26 07:30:26;;;;;;;;;;;6.40;99.90;;;;;;4868803;29;20291;-75
2022/12/26 07:32:52;;;;;;;;;;;6.40;99.90;;;;;;4878966;29;19923;-75
2022/12/26 07:35:18;;;;;;;;;;;6.40;99.90;;;;;;4850007;29;19927;-76
2022/12/26 07:37:43;;;;;;;;;;;6.40;99.90;;;;;;4861510;29;20479;-75
2022/12/26 07:40:09;;;;;;;;;;;6.50;99.90;;;;;;4846280;29;20280;-75
2022/12/26 07:42:35;;;;;;;;;;;6.60;99.90;;;;;;4861412;29;20358;-75
2022/12/26 07:45:00;;;;;;;;;;;6.60;99.90;;;;;;4846956;29;19930;-75
2022/12/26 07:47:26;;;;;;;;;;;6.70;99.90;;;;;;4861856;29;20344;-75
2022/12/26 07:49:52;;;;;;;;;;;6.70;99.90;;;;;;4861781;29;20022;-75
2022/12/26 07:52:18;;;;;;;;;;;6.80;99.90;;;;;;4856388;29;19935;-75
2022/12/26 07:54:44;;;;;;;;;;;6.80;99.90;;;;;;4864089;29;20400;-75
2022/12/26 07:57:10;;;;;;;;;;;6.80;99.90;;;;;;4859223;29;19981;-75
2022/12/26 07:59:35;;;;;;;;;;;6.80;99.90;;;;;;4866106;29;20349;-76
2022/12/26 08:02:03;;;;;;;;;;;6.90;99.90;;;;;;4873943;29;19959;-76
2022/12/26 08:04:32;;;;;;;;;;;6.90;99.90;;;;;;4876944;29;20014;-76
2022/12/26 08:06:58;;;;;;;;;;;6.90;99.90;;;;;;4859631;29;19928;-76
2022/12/26 08:09:23;;;;;;;;;;;7.00;99.90;;;;;;4877142;29;19958;-76
2022/12/26 08:11:49;;;;;;;;;;;7.00;99.90;;;;;;4861248;29;19927;-76
2022/12/26 08:14:17;;;;;;;;;;;6.90;99.90;;;;;;4865204;29;19975;-76
2022/12/26 08:16:43;;;;;;;;;;;6.90;99.90;;;;;;4877222;29;19970;-76
2022/12/26 08:19:09;;;;;;;;;;;7.00;99.90;;;;;;4876741;29;19927;-76
2022/12/26 08:21:35;;;;;;;;;;;7.00;99.90;;;;;;4857693;29;19939;-77
2022/12/26 08:24:01;;;;;;;;;;;6.90;99.90;;;;;;4872077;29;19952;-77
2022/12/26 08:26:26;;;;;;;;;;;7.00;99.90;;;;;;4891624;29;19927;-77
2022/12/26 08:28:55;;;;;;;;;;;7.00;99.90;;;;;;4873077;29;19951;-77
2022/12/26 08:31:21;;;;;;;;;;;7.00;99.90;;;;;;4875748;29;20273;-76
2022/12/26 08:33:50;;;;;;;;;;;7.10;99.90;;;;;;4875926;29;20005;-76
2022/12/26 08:36:17;;;;;;;;;;;7.10;99.90;;;;;;4894767;29;20030;-76
2022/12/26 08:38:43;;;;;;;;;;;7.10;99.90;;;;;;4870928;29;19927;-76
2022/12/26 08:41:12;;;;;;;;;;;7.10;99.90;;;;;;4886690;29;19938;-76
2022/12/26 08:43:38;;;;;;;;;;;7.20;99.90;;;;;;4880461;29;19927;-76
2022/12/26 08:46:06;;;;;;;;;;;7.10;99.90;;;;;;4860712;29;20515;-76
2022/12/26 08:48:35;;;;;;;;;;;7.20;99.90;;;;;;4895549;29;19923;-77
2022/12/26 08:51:09;;;;;;;;;;;7.20;99.90;;;;;;4876434;29;20018;-77
2022/12/26 08:53:35;;;;;;;;;;;7.20;99.90;;;;;;4889591;29;19934;-77
2022/12/26 08:56:02;;;;;;;;;;;7.20;99.90;;;;;;4875650;29;19924;-76
2022/12/26 08:58:28;;;;;;;;;;;7.20;99.90;;;;;;4876659;29;19975;-77
2022/12/26 09:00:53;;;;;;;;;;;7.20;99.90;;;;;;4882932;29;19966;-77
2022/12/26 09:03:19;;;;;;;;;;;7.30;99.90;;;;;;4893874;29;20411;-77
2022/12/26 09:05:45;;;;;;;;;;;7.30;99.90;;;;;;4875018;29;19928;-75
2022/12/26 09:08:11;;;;;;;;;;;7.40;99.90;;;;;;4876270;29;19982;-77
2022/12/26 09:10:36;;;;;;;;;;;7.30;99.90;;;;;;4860274;29;20422;-77
2022/12/26 09:13:02;;;;;;;;;;;7.20;99.90;;;;;;4876681;29;19979;-77
2022/12/26 09:15:28;;;;;;;;;;;7.10;99.90;;;;;;4859205;29;19927;-76
2022/12/26 09:17:53;;;;;;;;;;;7.00;99.90;;;;;;4893960;29;19935;-76
2022/12/26 09:20:19;;;;;;;;;;;6.80;99.90;;;;;;4871624;29;20391;-77
2022/12/26 09:22:51;;;;;;;;;;;6.50;99.90;;;;;;4859572;29;20451;-75
2022/12/26 09:25:24;;;;;;;;;;;6.30;99.90;;;;;;4892654;29;19931;-76
2022/12/26 09:27:52;;;;;;;;;;;6.10;99.90;;;;;;4888702;29;20380;-77
2022/12/26 09:30:18;;;;;;;;;;;6.00;99.90;;;;;;4874123;29;19939;-76
2022/12/26 09:32:44;;;;;;;;;;;5.90;99.90;;;;;;4890924;29;19924;-76
2022/12/26 09:35:09;;;;;;;;;;;5.80;99.90;;;;;;4877732;29;20373;-76
2022/12/26 09:37:35;;;;;;;;;;;5.70;99.90;;;;;;4859286;29;19923;-76
2022/12/26 09:40:01;;;;;;;;;;;5.70;99.90;;;;;;4891750;29;19974;-76
2022/12/26 09:42:42;;;;;;;;;;;5.60;99.90;;;;;;4875575;29;20372;-76
2022/12/26 09:45:07;;;;;;;;;;;5.60;99.90;;;;;;4890949;29;19923;-77
2022/12/26 09:47:39;;;;;;;;;;;5.50;99.90;;;;;;4871685;29;20516;-76
2022/12/26 09:50:04;;;;;;;;;;;5.50;99.90;;;;;;4888080;29;19935;-76
2022/12/26 09:52:34;;;;;;;;;;;5.50;99.90;;;;;;4889842;29;20261;-76
2022/12/26 09:55:03;;;;;;;;;;;5.60;99.90;;;;;;4872973;29;19923;-77
2022/12/26 09:57:42;;;;;;;;;;;5.70;99.90;;;;;;4871092;29;19950;-76
2022/12/26 10:00:19;;;;;;;;;;;5.80;99.90;;;;;;4889532;29;19928;-77
2022/12/26 10:02:48;;;;;;;;;;;5.90;99.90;;;;;;4893228;29;20607;-76
2022/12/26 10:05:14;;;;;;;;;;;6.00;99.90;;;;;;4877929;29;19942;-77
2022/12/26 10:07:54;;;;;;;;;;;6.10;99.90;;;;;;4859968;29;19927;-76
2022/12/26 10:10:44;;;;;;;;;;;6.20;99.90;;;;;;4891992;29;19932;-76
2022/12/26 10:13:36;;;;;;;;;;;6.20;99.90;;;;;;4880264;29;19980;-77
2022/12/26 10:16:21;;;;;;;;;;;6.20;99.90;;;;;;4863973;29;19967;-77
2022/12/26 10:19:09;;;;;;;;;;;6.10;99.90;;;;;;4883292;29;20018;-77
2022/12/26 10:21:41;;;;;;;;;;;6.00;99.90;;;;;;4890817;29;19988;-76
2022/12/26 10:24:19;;;;;;;;;;;5.90;99.90;;;;;;4883362;29;20459;-77
2022/12/26 10:26:48;;;;;;;;;;;5.90;99.90;;;;;;4890826;29;19974;-76
2022/12/26 10:29:20;;;;;;;;;;;5.90;99.90;;;;;;4870259;29;19923;-77
2022/12/26 10:31:58;;;;;;;;;;;5.90;99.90;;;;;;4875191;29;20443;-77
2022/12/26 10:34:27;;;;;;;;;;;5.80;99.90;;;;;;4894997;29;19927;-76
2022/12/26 10:36:56;;;;;;;;;;;5.80;99.90;;;;;;4892987;29;20022;-76
2022/12/26 10:39:24;;;;;;;;;;;5.80;99.90;;;;;;4893815;29;20002;-76
2022/12/26 10:41:52;;;;;;;;;;;5.80;99.90;;;;;;4878342;29;20046;-76
2022/12/26 10:44:18;;;;;;;;;;;5.80;99.90;;;;;;4878504;29;19938;-76
2022/12/26 10:47:04;;;;;;;;;;;5.80;99.90;;;;;;4877232;29;20241;-76
2022/12/26 10:49:29;;;;;;;;;;;5.90;99.90;;;;;;4874601;29;20011;-76
2022/12/26 10:51:57;;;;;;;;;;;5.90;99.90;;;;;;4893354;29;20030;-76
2022/12/26 10:54:23;;;;;;;;;;;5.90;99.90;;;;;;4871804;29;19928;-76
2022/12/26 10:56:50;;;;;;;;;;;5.90;99.90;;;;;;4874922;29;19927;-76
2022/12/26 10:59:21;;;;;;;;;;;5.90;99.90;;;;;;4868921;29;19951;-76
2022/12/26 11:01:47;;;;;;;;;;;6.00;99.90;;;;;;4893088;29;19928;-76
2022/12/26 11:04:23;;;;;;;;;;;6.00;99.90;;;;;;4862635;29;20394;-76
2022/12/26 11:06:52;;;;;;;;;;;5.90;99.90;;;;;;4889900;29;19932;-76
2022/12/26 11:09:31;;;;;;;;;;;5.90;99.90;;;;;;4889691;29;19979;-75
2022/12/26 11:11:57;;;;;;;;;;;5.90;99.90;;;;;;4885081;29;19931;-75
2022/12/26 11:14:28;;;;;;;;;;;5.90;99.90;;;;;;4858214;29;19923;-75
2022/12/26 11:16:56;;;;;;;;;;;5.90;99.90;;;;;;4878982;29;19923;-75
2022/12/26 11:19:26;;;;;;;;;;;5.90;99.90;;;;;;4872324;29;19924;-76
2022/12/26 11:21:52;;;;;;;;;;;5.90;99.90;;;;;;4876587;29;19927;-76
2022/12/26 11:24:19;;;;;;;;;;;6.00;99.90;;;;;;4895535;29;20185;-76
2022/12/26 11:26:45;;;;;;;;;;;6.00;99.90;;;;;;4877546;29;19975;-76
2022/12/26 11:29:24;;;;;;;;;;;6.00;99.90;;;;;;4872373;29;19927;-76
2022/12/26 11:31:56;;;;;;;;;;;6.10;99.90;;;;;;4878985;29;19923;-76
2022/12/26 11:34:44;;;;;;;;;;;6.10;99.90;;;;;;4891644;29;19923;-76
2022/12/26 11:41:30;;;;;;;;;;;6.30;99.90;;;;;;4890830;29;19954;-76
2022/12/26 11:43:30;;;;;;;;;;;6.20;99.90;;;;;;4891937;29;19952;-76
2022/12/26 11:46:16;;;;;;;;;;;6.10;99.90;;;;;;4862849;29;19923;-75
2022/12/26 11:49:00;;;;;;;;;;;6.00;99.90;;;;;;4889654;29;19938;-75
2022/12/26 11:51:34;;;;;;;;;;;5.90;99.90;;;;;;4845724;29;20333;-75
2022/12/26 11:54:20;;;;;;;;;;;5.90;99.90;;;;;;4875267;29;19935;-76
2022/12/26 11:56:46;;;;;;;;;;;6.00;99.90;;;;;;4861166;29;19923;-76
2022/12/26 11:59:19;;;;;;;;;;;6.00;99.90;;;;;;4858482;29;19935;-75
2022/12/26 12:02:05;;;;;;;;;;;6.00;99.90;;;;;;4860210;29;19942;-75
2022/12/26 12:04:31;;;;;;;;;;;6.10;99.90;;;;;;4856366;29;20026;-76
2022/12/26 12:07:04;;;;;;;;;;;6.20;99.90;;;;;;4846515;29;19924;-75
2022/12/26 12:09:41;;;;;;;;;;;6.20;99.90;;;;;;4874385;29;19943;-75
2022/12/26 12:12:09;;;;;;;;;;;6.20;99.90;;;;;;4858102;29;19924;-76
2022/12/26 12:14:47;;;;;;;;;;;6.10;99.90;;;;;;4872430;29;20037;-76
2022/12/26 12:17:19;;;;;;;;;;;6.00;99.90;;;;;;4873222;29;20292;-75
2022/12/26 12:19:51;;;;;;;;;;;5.90;99.90;;;;;;4855115;29;19931;-76
2022/12/26 12:22:16;;;;;;;;;;;5.80;99.90;;;;;;4875287;29;20030;-76
2022/12/26 12:24:45;;;;;;;;;;;5.70;99.90;;;;;;4857926;29;20006;-75
2022/12/26 12:27:22;;;;;;;;;;;5.50;99.90;;;;;;4874942;29;19935;-75
2022/12/26 12:30:07;;;;;;;;;;;5.40;99.90;;;;;;4873901;29;19935;-75
2022/12/26 12:32:38;;;;;;;;;;;5.40;99.90;;;;;;4873692;29;19933;-75
2022/12/26 12:35:07;;;;;;;;;;;5.40;99.90;;;;;;4872898;29;20687;-75
2022/12/26 12:37:40;;;;;;;;;;;5.40;99.90;;;;;;4869907;29;19931;-75
2022/12/26 12:40:18;;;;;;;;;;;5.40;99.90;;;;;;4858924;29;20373;-74
2022/12/26 12:42:46;;;;;;;;;;;5.40;99.90;;;;;;4873491;29;20376;-75
2022/12/26 12:45:31;;;;;;;;;;;5.40;99.90;;;;;;4859796;29;20328;-75
2022/12/26 12:48:15;;;;;;;;;;;5.40;99.90;;;;;;4858107;29;20460;-75
2022/12/26 12:50:50;;;;;;;;;;;5.40;99.90;;;;;;4870172;29;19934;-75
2022/12/26 12:53:27;;;;;;;;;;;5.50;99.90;;;;;;4875539;29;19924;-75
2022/12/26 12:56:05;;;;;;;;;;;5.40;99.90;;;;;;4873349;29;19927;-74
2022/12/26 12:58:54;;;;;;;;;;;5.40;99.90;;;;;;4879830;29;19927;-75
2022/12/26 13:01:22;;;;;;;;;;;5.40;99.90;;;;;;4890484;29;20098;-75
2022/12/26 13:03:50;;;;;;;;;;;5.40;99.90;;;;;;4891125;29;20136;-76
2022/12/26 13:06:21;;;;;;;;;;;5.40;99.90;;;;;;4892724;29;20177;-76
2022/12/26 13:08:50;;;;;;;;;;;5.50;99.90;;;;;;4870007;29;19930;-74
2022/12/26 13:11:19;;;;;;;;;;;5.60;99.90;;;;;;4891237;29;20049;-75
2022/12/26 13:13:48;;;;;;;;;;;5.60;99.90;;;;;;4865389;29;20300;-74
2022/12/26 13:16:15;;;;;;;;;;;5.60;99.90;;;;;;4872846;29;19924;-75
2022/12/26 13:19:01;;;;;;;;;;;5.70;99.90;;;;;;4887265;29;19958;-75
2022/12/26 13:21:29;;;;;;;;;;;5.60;99.90;;;;;;4868986;29;19931;-75
2022/12/26 13:24:23;;;;;;;;;;;5.60;99.90;;;;;;4883505;29;20333;-75
2022/12/26 13:26:48;;;;;;;;;;;5.60;99.90;;;;;;4867518;29;20018;-75
2022/12/26 13:29:30;;;;;;;;;;;5.60;99.90;;;;;;4883577;29;20017;-75
2022/12/26 13:31:57;;;;;;;;;;;5.60;99.90;;;;;;4886760;29;19930;-75
2022/12/26 13:34:22;;;;;;;;;;;5.60;99.90;;;;;;4874196;29;19978;-74
2022/12/26 13:36:49;;;;;;;;;;;5.60;99.90;;;;;;4873798;29;19969;-74
2022/12/26 13:39:15;;;;;;;;;;;5.60;99.90;;;;;;4875509;29;20312;-74
2022/12/26 13:44:34;;;;;;;;;;;5.60;99.90;;;;;;4890632;29;19935;-74
2022/12/26 13:47:00;;;;;;;;;;;5.60;99.90;;;;;;4870590;29;19931;-76
2022/12/26 13:49:39;;;;;;;;;;;5.50;99.90;;;;;;4872042;29;19928;-74
2022/12/26 13:52:11;;;;;;;;;;;5.50;99.90;;;;;;4856647;29;19927;-74
2022/12/26 13:54:57;;;;;;;;;;;5.50;99.90;;;;;;4859815;29;19990;-74
2022/12/26 13:57:23;;;;;;;;;;;5.50;99.90;;;;;;4856595;29;19923;-74
2022/12/26 13:59:57;;;;;;;;;;;5.50;99.90;;;;;;4857879;29;19931;-73
2022/12/26 14:02:42;;;;;;;;;;;5.50;99.90;;;;;;4871445;29;19987;-74
2022/12/26 14:05:31;;;;;;;;;;;5.50;99.90;;;;;;4871121;29;19939;-75
2022/12/26 14:08:00;;;;;;;;;;;5.50;99.90;;;;;;4876840;29;19932;-74
2022/12/26 14:10:32;;;;;;;;;;;5.50;99.90;;;;;;4856858;29;20426;-74
2022/12/26 14:13:00;;;;;;;;;;;5.40;99.90;;;;;;4861917;29;19931;-74
2022/12/26 14:15:45;;;;;;;;;;;5.40;99.90;;;;;;4870275;29;19923;-75
2022/12/26 14:20:55;;;;;;;;;;;5.30;99.90;;;;;;5415574;23;19942;-74
2022/12/26 14:28:30;;;;;;;;;;;5.20;99.90;;;;;;4931198;23;19928;-74
2022/12/26 14:31:16;;;;;;;;;;;5.10;99.90;;;;;;4882025;29;19931;-74
2022/12/26 14:33:59;;;;;;;;;;;5.00;99.90;;;;;;4825465;29;19931;-75
2022/12/26 14:36:38;;;;;;;;;;;4.90;99.90;;;;;;4884888;29;19940;-74
2022/12/26 14:39:24;;;;;;;;;;;4.70;99.90;;;;;;4854008;29;19925;-74
2022/12/26 14:44:56;;;;;;;;;;;4.50;99.90;;;;;;4869987;29;19932;-74
2022/12/26 14:47:42;;;;;;;;;;;4.50;99.90;;;;;;4877518;29;19967;-74
2022/12/26 14:50:26;;;;;;;;;;;4.40;99.90;;;;;;4856022;29;19924;-74
2022/12/26 14:52:52;;;;;;;;;;;4.40;99.90;;;;;;4836630;29;19932;-74
2022/12/26 14:55:36;;;;;;;;;;;4.30;99.90;;;;;;4858111;29;19924;-73
2022/12/26 14:58:38;;;;;;;;;;;4.20;99.90;;;;;;4887994;29;19979;-74
2022/12/26 15:01:14;;;;;;;;;;;4.10;99.90;;;;;;4834063;29;19991;-75
2022/12/26 15:03:40;;;;;;;;;;;4.10;99.90;;;;;;4855573;29;20308;-73
2022/12/26 15:06:18;;;;;;;;;;;4.10;99.90;;;;;;4868008;29;19971;-74
2022/12/26 15:08:52;;;;;;;;;;;4.00;99.90;;;;;;4858409;29;19949;-74
2022/12/26 15:11:37;;;;;;;;;;;3.90;99.90;;;;;;4883875;29;21292;-75
2022/12/26 15:14:10;;;;;;;;;;;3.80;99.90;;;;;;4863516;29;19928;-73
2022/12/26 15:16:36;;;;;;;;;;;3.80;99.90;;;;;;4871767;29;19931;-74
2022/12/26 15:19:22;;;;;;;;;;;3.70;99.90;;;;;;4871032;29;19925;-75
2022/12/26 15:22:10;;;;;;;;;;;3.60;99.90;;;;;;4883999;29;20384;-75
2022/12/26 15:24:55;;;;;;;;;;;3.50;99.90;;;;;;4873488;29;20320;-74
2022/12/26 15:27:38;;;;;;;;;;;3.50;99.90;;;;;;4845858;29;20011;-74
2022/12/26 15:30:04;;;;;;;;;;;3.40;99.90;;;;;;4856523;29;20470;-73
2022/12/26 15:32:37;;;;;;;;;;;3.30;99.90;;;;;;4865500;29;19931;-75
2022/12/26 15:35:09;;;;;;;;;;;3.30;99.90;;;;;;4873354;29;20023;-75
2022/12/26 15:37:53;;;;;;;;;;;3.20;99.90;;;;;;4857759;29;20018;-74
2022/12/26 15:40:22;;;;;;;;;;;3.20;99.90;;;;;;4856081;29;19932;-75
2022/12/26 15:42:59;;;;;;;;;;;3.10;99.90;;;;;;4867226;29;19924;-75
2022/12/26 15:45:32;;;;;;;;;;;3.10;99.90;;;;;;4856075;29;20406;-74
2022/12/26 15:48:03;;;;;;;;;;;3.00;99.90;;;;;;4870988;29;20077;-75
2022/12/26 15:50:42;;;;;;;;;;;3.00;99.90;;;;;;4873586;29;20353;-75
2022/12/26 15:53:23;;;;;;;;;;;3.00;99.90;;;;;;4872313;29;19927;-75
2022/12/26 15:56:05;;;;;;;;;;;3.00;99.90;;;;;;4853591;29;19928;-74
2022/12/26 15:58:46;;;;;;;;;;;3.00;99.90;;;;;;4855282;29;20413;-75
2022/12/26 16:01:38;;;;;;;;;;;2.90;99.90;;;;;;4868464;29;19924;-75
2022/12/26 16:04:13;;;;;;;;;;;3.00;99.90;;;;;;4872411;29;19963;-75
2022/12/26 16:07:02;;;;;;;;;;;2.90;99.90;;;;;;4871601;29;19934;-75
2022/12/26 16:09:48;;;;;;;;;;;3.00;99.90;;;;;;4861074;29;19924;-75
2022/12/26 16:12:17;;;;;;;;;;;2.90;99.90;;;;;;4870899;29;19938;-74
2022/12/26 16:14:43;;;;;;;;;;;3.00;99.90;;;;;;4872500;29;19931;-75
2022/12/26 16:17:14;;;;;;;;;;;2.90;99.90;;;;;;4871891;29;19928;-74
2022/12/26 16:19:41;;;;;;;;;;;2.90;99.90;;;;;;4869345;29;19927;-74
2022/12/26 16:22:53;;;;;;;;;;;2.90;99.90;;;;;;4874051;29;19961;-75
2022/12/26 16:24:53;;;;;;;;;;;2.90;99.90;;;;;;4857994;29;19943;-75
2022/12/26 16:27:21;;;;;;;;;;;2.80;99.90;;;;;;4869586;29;20030;-75
2022/12/26 16:29:48;;;;;;;;;;;2.90;99.90;;;;;;4854020;29;19980;-75
2022/12/26 16:32:16;;;;;;;;;;;2.90;99.90;;;;;;4868759;29;19924;-75
2022/12/26 16:34:42;;;;;;;;;;;2.90;99.90;;;;;;4856612;29;19924;-75
2022/12/26 16:37:13;;;;;;;;;;;2.90;99.90;;;;;;4842996;29;19974;-74
2022/12/26 16:39:39;;;;;;;;;;;3.00;99.90;;;;;;4855673;29;20281;-75
2022/12/26 16:42:06;;;;;;;;;;;3.00;99.90;;;;;;4858687;29;19938;-75
2022/12/26 16:44:39;;;;;;;;;;;3.00;99.90;;;;;;4867419;29;20011;-75
2022/12/26 16:47:07;;;;;;;;;;;3.00;99.90;;;;;;4871330;29;19928;-75
2022/12/26 16:49:33;;;;;;;;;;;3.00;99.90;;;;;;4865380;29;19928;-75
2022/12/26 16:51:59;;;;;;;;;;;3.00;99.90;;;;;;4861009;29;19928;-74
2022/12/26 16:54:26;;;;;;;;;;;3.00;99.90;;;;;;4854079;29;19955;-75
2022/12/26 16:56:56;;;;;;;;;;;3.00;99.90;;;;;;4850630;29;19924;-75
2022/12/26 16:59:23;;;;;;;;;;;3.00;99.90;;;;;;4866155;29;19927;-74
2022/12/26 17:01:50;;;;;;;;;;;3.10;99.90;;;;;;4867328;29;20032;-75
2022/12/26 17:04:17;;;;;;;;;;;3.10;99.90;;;;;;4871809;29;20018;-75
2022/12/26 17:06:48;;;;;;;;;;;3.10;99.90;;;;;;4860710;29;19953;-75
2022/12/26 17:09:14;;;;;;;;;;;3.00;99.90;;;;;;4872181;29;19924;-75
2022/12/26 17:11:52;;;;;;;;;;;3.00;99.90;;;;;;4872036;29;20269;-75
2022/12/26 17:14:43;;;;;;;;;;;3.00;99.90;;;;;;4857889;29;19924;-74
2022/12/26 17:17:21;;;;;;;;;;;3.00;99.90;;;;;;4867559;29;19935;-75